Time;durP1;ratioP1;P1;durP2;ratioP2;P2;SDS_P1;SDS_P2;PMS_P1;PMS_P2;Temp;Humidity;BMP_temperature;BMP_pressure;BME280_temperature;BME280_humidity;BME280_pressure;Samples;Min_cycle;Max_cycle;Signal;HPM_P1;HPM_P2
2021/07/06 00:00:28;;;;;;;1.03;1.03;;;;;;;17.99;92.31;99707.69;5011300;28;20541;-72
2021/07/06 00:02:54;;;;;;;0.90;0.90;;;;;;;18.05;92.27;99706.16;5010864;28;20173;-72
2021/07/06 00:05:20;;;;;;;0.80;0.77;;;;;;;18.10;91.88;99706.63;5011191;28;20172;-72
2021/07/06 00:07:46;;;;;;;3.07;1.00;;;;;;;18.09;91.81;99707.03;5011375;28;20291;-72
2021/07/06 00:10:13;;;;;;;2.53;1.10;;;;;;;18.03;92.55;99705.75;5011081;28;20168;-72
2021/07/06 00:12:39;;;;;;;1.57;0.80;;;;;;;18.01;92.47;99688.75;5011180;28;20169;-72
2021/07/06 00:15:07;;;;;;;0.90;0.90;;;;;;;18.04;92.74;99704.59;5010957;28;20250;-72
2021/07/06 00:17:32;;;;;;;0.80;0.80;;;;;;;18.07;92.57;99698.28;5010881;28;20679;-72
2021/07/06 00:19:59;;;;;;;1.03;0.80;;;;;;;18.10;93.15;99697.56;5010928;28;20220;-72
2021/07/06 00:22:24;;;;;;;1.10;1.00;;;;;;;18.07;93.46;99692.75;5010794;28;20212;-72
2021/07/06 00:24:49;;;;;;;0.97;0.90;;;;;;;18.05;92.85;99689.59;5010805;28;20566;-72
2021/07/06 00:27:15;;;;;;;1.23;1.13;;;;;;;18.06;93.23;99689.19;5010828;28;20196;-72
2021/07/06 00:29:41;;;;;;;1.20;1.10;;;;;;;17.91;93.73;99687.47;5008953;28;20275;-72
2021/07/06 00:32:06;;;;;;;0.70;0.70;;;;;;;17.96;93.90;99687.16;5010515;28;20533;-73
2021/07/06 00:34:32;;;;;;;1.30;1.20;;;;;;;18.07;93.97;99690.78;5009328;28;20323;-72
2021/07/06 00:36:57;;;;;;;1.23;1.00;;;;;;;18.19;93.49;99684.19;5010818;28;20180;-72
2021/07/06 00:39:22;;;;;;;1.40;1.30;;;;;;;18.26;92.81;99692.56;5010588;28;20183;-72
2021/07/06 00:41:48;;;;;;;0.90;0.90;;;;;;;18.24;93.50;99689.38;5010372;28;20176;-72
2021/07/06 00:44:19;;;;;;;0.73;0.73;;;;;;;18.19;93.68;99691.69;5010459;28;20172;-72
2021/07/06 00:46:45;;;;;;;1.33;1.10;;;;;;;18.02;94.74;99690.34;5010583;28;20231;-72
2021/07/06 00:49:11;;;;;;;0.70;0.70;;;;;;;17.97;95.24;99676.88;5010741;28;20263;-72
2021/07/06 00:51:36;;;;;;;0.80;0.80;;;;;;;17.96;94.83;99689.13;5010323;28;20327;-72
2021/07/06 00:54:03;;;;;;;0.80;0.80;;;;;;;18.00;94.53;99695.47;5010527;28;20256;-72
2021/07/06 00:56:29;;;;;;;0.80;0.80;;;;;;;17.93;94.35;99684.31;5010504;28;20191;-72
2021/07/06 00:58:55;;;;;;;0.77;0.77;;;;;;;18.01;94.05;99683.22;5010437;28;20173;-72
2021/07/06 01:01:20;;;;;;;0.60;0.60;;;;;;;18.13;93.10;99683.75;5010299;28;20279;-72
2021/07/06 01:03:46;;;;;;;0.70;0.70;;;;;;;18.19;92.55;99675.09;5010524;28;20177;-72
2021/07/06 01:06:11;;;;;;;0.53;0.53;;;;;;;18.18;92.54;99681.81;5010423;28;20624;-72
2021/07/06 01:08:38;;;;;;;0.73;0.73;;;;;;;18.28;92.41;99686.66;5010456;28;20219;-73
2021/07/06 01:11:04;;;;;;;2.00;0.60;;;;;;;18.32;91.83;99688.25;5010072;28;20191;-73
2021/07/06 01:13:30;;;;;;;0.50;0.50;;;;;;;18.38;91.39;99692.28;5010343;28;20190;-72
2021/07/06 01:15:55;;;;;;;2.60;0.80;;;;;;;18.18;91.99;99679.03;5010401;28;20180;-73
2021/07/06 01:18:21;;;;;;;0.80;0.80;;;;;;;18.25;92.19;99685.44;5010540;28;20177;-72
2021/07/06 01:20:50;;;;;;;0.50;0.50;;;;;;;18.28;91.41;99681.13;5010044;28;20594;-72
2021/07/06 01:23:19;;;;;;;0.53;0.53;;;;;;;18.28;92.07;99676.38;5010354;28;20187;-72
2021/07/06 01:25:44;;;;;;;0.50;0.50;;;;;;;18.36;91.34;99678.00;5008616;28;20270;-72
2021/07/06 01:28:10;;;;;;;0.63;0.63;;;;;;;18.39;91.65;99674.50;5010179;28;20700;-72
2021/07/06 01:30:36;;;;;;;0.60;0.60;;;;;;;18.37;91.79;99674.09;5010060;28;20650;-72
2021/07/06 01:33:02;;;;;;;0.70;0.70;;;;;;;18.08;93.53;99666.69;5010153;28;20228;-72
2021/07/06 01:35:28;;;;;;;0.70;0.70;;;;;;;18.03;94.28;99669.81;5010239;28;20694;-72
2021/07/06 01:37:58;;;;;;;0.60;0.60;;;;;;;18.05;93.29;99667.47;5010457;28;20179;-72
2021/07/06 01:40:25;;;;;;;0.67;0.67;;;;;;;18.10;93.70;99667.13;5010508;28;20616;-72
2021/07/06 01:42:52;;;;;;;0.50;0.50;;;;;;;17.99;94.31;99655.19;5010365;28;20719;-72
2021/07/06 01:45:22;;;;;;;0.50;0.50;;;;;;;18.04;93.83;99641.78;5009275;28;20557;-72
2021/07/06 01:47:52;;;;;;;0.53;0.53;;;;;;;18.12;93.00;99646.22;5010020;28;20205;-72
2021/07/06 01:50:21;;;;;;;0.50;0.50;;;;;;;18.23;91.30;99651.84;5010044;28;20675;-72
2021/07/06 01:52:52;;;;;;;0.60;0.50;;;;;;;18.22;91.18;99638.38;5011394;28;20177;-72
2021/07/06 01:55:20;;;;;;;0.40;0.40;;;;;;;18.17;91.44;99631.25;5013768;28;20176;-72
2021/07/06 01:57:48;;;;;;;0.57;0.57;;;;;;;18.11;92.32;99630.81;5013552;28;20251;-72
2021/07/06 02:00:16;;;;;;;0.40;0.40;;;;;;;17.95;93.20;99626.72;5013549;28;20632;-72
2021/07/06 02:02:42;;;;;;;0.50;0.50;;;;;;;18.06;93.67;99619.28;5013147;28;20176;-72
2021/07/06 02:05:22;;;;;;;0.70;0.60;;;;;;;17.84;94.04;99610.81;5013428;28;20192;-72
2021/07/06 02:07:48;;;;;;;0.97;0.60;;;;;;;17.86;94.05;99615.19;5013596;28;20312;-72
2021/07/06 02:10:15;;;;;;;0.70;0.70;;;;;;;17.69;95.23;99614.63;5013374;28;20223;-72
2021/07/06 02:12:41;;;;;;;0.50;0.50;;;;;;;17.80;94.42;99615.53;5013107;28;20177;-72
2021/07/06 02:15:10;;;;;;;0.50;0.50;;;;;;;17.82;94.33;99617.91;5012102;28;20184;-72
2021/07/06 02:17:35;;;;;;;1.30;0.60;;;;;;;17.95;92.63;99619.22;5013014;28;20176;-72
2021/07/06 02:20:01;;;;;;;0.33;0.33;;;;;;;18.11;91.22;99627.25;5013187;28;20242;-72
2021/07/06 02:22:26;;;;;;;0.60;0.60;;;;;;;18.10;91.78;99623.69;5012860;28;20173;-72
2021/07/06 02:24:52;;;;;;;0.50;0.50;;;;;;;18.20;91.16;99624.16;5012948;28;20271;-72
2021/07/06 02:27:17;;;;;;;0.40;0.40;;;;;;;18.18;90.74;99632.84;5012940;28;20667;-72
2021/07/06 02:29:42;;;;;;;0.60;0.50;;;;;;;18.19;90.45;99634.41;5011180;28;20189;-72
2021/07/06 02:32:09;;;;;;;0.87;0.40;;;;;;;18.21;90.32;99629.28;5013153;28;20254;-72
2021/07/06 02:34:34;;;;;;;3.60;0.53;;;;;;;18.12;91.00;99631.59;5013214;28;20271;-72
2021/07/06 02:37:00;;;;;;;0.37;0.37;;;;;;;18.10;91.09;99633.97;5013547;28;20691;-72
2021/07/06 02:39:25;;;;;;;0.30;0.30;;;;;;;18.09;91.25;99626.84;5001752;28;20189;-72
2021/07/06 02:41:50;;;;;;;0.57;0.57;;;;;;;17.94;92.18;99625.09;4993511;28;20173;-72
2021/07/06 02:44:16;;;;;;;0.47;0.47;;;;;;;17.97;92.86;99627.13;4993589;28;20552;-72
2021/07/06 02:46:41;;;;;;;0.40;0.40;;;;;;;17.86;93.78;99632.56;4992253;28;20186;-72
2021/07/06 02:49:07;;;;;;;1.30;0.63;;;;;;;17.87;93.59;99619.53;4993566;28;20365;-72
2021/07/06 02:51:33;;;;;;;0.60;0.60;;;;;;;17.86;93.51;99629.00;4993365;28;20580;-72
2021/07/06 02:53:58;;;;;;;0.40;0.40;;;;;;;17.78;94.14;99619.81;4993366;28;20516;-72
2021/07/06 02:56:24;;;;;;;2.00;0.67;;;;;;;17.86;94.23;99615.97;4993702;28;20184;-72
2021/07/06 02:58:49;;;;;;;0.60;0.60;;;;;;;17.79;94.27;99625.00;4993326;28;20199;-72
2021/07/06 03:01:14;;;;;;;1.33;0.60;;;;;;;17.81;94.48;99636.47;4993495;28;20271;-72
2021/07/06 03:03:40;;;;;;;0.50;0.50;;;;;;;17.75;94.12;99639.94;4992290;28;20181;-72
2021/07/06 03:06:05;;;;;;;0.47;0.47;;;;;;;17.38;96.04;99635.19;4993056;28;20219;-72
2021/07/06 03:08:31;;;;;;;0.60;0.60;;;;;;;17.38;97.60;99635.19;4993119;28;20208;-72
2021/07/06 03:10:57;;;;;;;0.57;0.57;;;;;;;17.41;96.10;99633.63;4992914;28;20180;-73
2021/07/06 03:13:23;;;;;;;1.33;0.63;;;;;;;17.51;96.03;99632.97;4992911;28;20631;-72
2021/07/06 03:15:48;;;;;;;0.50;0.50;;;;;;;17.45;96.02;99626.97;4992918;28;20276;-72
2021/07/06 03:18:14;;;;;;;1.00;0.60;;;;;;;17.52;95.65;99629.81;4992909;28;20182;-72
2021/07/06 03:20:39;;;;;;;0.83;0.40;;;;;;;17.53;95.58;99620.34;4992324;28;20188;-72
2021/07/06 03:23:04;;;;;;;1.37;0.83;;;;;;;17.58;95.30;99621.97;4992208;28;20648;-72
2021/07/06 03:25:32;;;;;;;0.50;0.50;;;;;;;17.50;95.55;99626.66;4992148;28;20272;-72
2021/07/06 03:28:00;;;;;;;0.40;0.40;;;;;;;17.44;96.12;99619.84;4992113;28;20295;-72
2021/07/06 03:30:28;;;;;;;0.83;0.50;;;;;;;17.45;95.96;99621.44;4991796;28;20180;-72
2021/07/06 03:32:56;;;;;;;0.50;0.50;;;;;;;17.49;96.15;99619.50;4991924;28;20209;-72
2021/07/06 03:35:22;;;;;;;0.60;0.60;;;;;;;17.59;95.89;99618.03;4992054;28;20181;-72
2021/07/06 03:37:48;;;;;;;0.50;0.50;;;;;;;17.67;95.52;99628.00;4991892;28;20189;-72
2021/07/06 03:40:14;;;;;;;0.50;0.50;;;;;;;17.60;96.28;99625.16;4992309;28;20235;-72
2021/07/06 03:42:40;;;;;;;3.03;0.50;;;;;;;17.62;96.49;99614.50;4992009;28;20633;-72
2021/07/06 03:45:08;;;;;;;0.40;0.40;;;;;;;17.67;96.38;99616.94;4992125;28;20208;-72
2021/07/06 03:47:34;;;;;;;0.33;0.33;;;;;;;17.75;96.06;99615.84;4991827;28;20193;-72
2021/07/06 03:49:59;;;;;;;0.40;0.40;;;;;;;17.86;95.52;99610.44;4991830;28;20192;-72
2021/07/06 03:52:24;;;;;;;0.40;0.40;;;;;;;17.80;96.13;99611.97;4991878;28;20173;-72
2021/07/06 03:54:50;;;;;;;0.50;0.50;;;;;;;17.87;96.01;99614.78;4991771;28;20216;-72
2021/07/06 03:57:15;;;;;;;1.33;0.40;;;;;;;17.97;95.12;99625.16;4991762;28;20165;-72
2021/07/06 03:59:41;;;;;;;0.53;0.53;;;;;;;17.90;95.37;99616.00;4991683;28;20205;-73
2021/07/06 04:02:06;;;;;;;0.50;0.50;;;;;;;18.01;94.30;99617.69;4991434;28;20224;-73
2021/07/06 04:04:32;;;;;;;0.50;0.50;;;;;;;17.99;94.22;99609.00;4991552;28;20648;-73
2021/07/06 04:06:57;;;;;;;0.87;0.57;;;;;;;18.04;94.57;99619.69;4991337;28;20201;-72
2021/07/06 04:09:23;;;;;;;0.57;0.57;;;;;;;17.95;95.02;99612.91;4991660;28;20199;-72
2021/07/06 04:11:48;;;;;;;0.57;0.57;;;;;;;17.98;94.64;99612.13;4991482;28;20628;-73
2021/07/06 04:14:13;;;;;;;0.70;0.60;;;;;;;18.05;94.28;99610.22;4991464;28;20172;-73
2021/07/06 04:16:39;;;;;;;0.70;0.70;;;;;;;18.04;94.23;99607.81;4991257;28;20175;-72
2021/07/06 04:19:06;;;;;;;0.60;0.60;;;;;;;18.00;94.48;99616.09;4991390;28;20181;-72
2021/07/06 04:21:33;;;;;;;1.03;0.60;;;;;;;18.04;94.48;99627.19;4990968;28;20177;-73
2021/07/06 04:23:59;;;;;;;0.67;0.57;;;;;;;18.03;94.64;99617.31;4991352;28;20178;-72
2021/07/06 04:26:24;;;;;;;0.70;0.57;;;;;;;18.08;94.65;99614.19;4991513;28;20177;-72
2021/07/06 04:28:50;;;;;;;0.53;0.50;;;;;;;18.18;94.02;99624.53;4991327;28;20239;-72
2021/07/06 04:31:15;;;;;;;1.57;0.70;;;;;;;18.21;94.24;99626.53;4990645;28;20177;-72
2021/07/06 04:33:40;;;;;;;0.53;0.53;;;;;;;18.26;93.44;99619.88;4991038;28;20586;-72
2021/07/06 04:36:06;;;;;;;0.47;0.47;;;;;;;18.31;93.78;99620.31;4991172;28;20829;-72
2021/07/06 04:38:31;;;;;;;0.53;0.53;;;;;;;18.32;93.38;99619.13;4991094;28;20645;-72
2021/07/06 04:40:56;;;;;;;0.80;0.60;;;;;;;18.37;93.68;99607.72;4991076;28;20204;-72
2021/07/06 04:43:22;;;;;;;3.53;1.00;;;;;;;18.46;92.81;99615.66;4991166;28;20188;-73
2021/07/06 04:45:48;;;;;;;0.40;0.40;;;;;;;18.54;92.57;99611.78;4991042;28;20554;-72
2021/07/06 04:48:13;;;;;;;0.70;0.70;;;;;;;18.61;91.90;99611.03;4991315;28;20216;-72
2021/07/06 04:50:39;;;;;;;0.50;0.50;;;;;;;18.66;92.08;99608.72;4990816;28;20224;-72
2021/07/06 04:53:08;;;;;;;0.90;0.80;;;;;;;18.78;91.55;99602.06;4990845;28;20544;-72
2021/07/06 04:55:35;;;;;;;0.80;0.77;;;;;;;18.87;91.12;99610.81;4990940;28;20172;-72
2021/07/06 04:58:01;;;;;;;0.60;0.57;;;;;;;18.92;90.87;99613.19;4990980;28;20269;-72
2021/07/06 05:00:26;;;;;;;0.80;0.80;;;;;;;19.03;90.50;99611.28;4990902;28;20659;-72
2021/07/06 05:02:52;;;;;;;0.50;0.50;;;;;;;19.18;91.19;99614.09;4990576;28;20653;-73
2021/07/06 05:05:17;;;;;;;0.50;0.50;;;;;;;19.28;89.75;99600.31;4990803;28;20181;-73
2021/07/06 05:07:42;;;;;;;0.50;0.50;;;;;;;19.40;89.47;99604.72;4990784;28;20505;-72
2021/07/06 05:10:11;;;;;;;1.07;0.60;;;;;;;19.48;88.46;99609.06;4990832;28;20177;-73
2021/07/06 05:12:37;;;;;;;0.70;0.70;;;;;;;19.52;87.49;99603.53;4990616;28;20184;-73
2021/07/06 05:15:04;;;;;;;0.93;0.93;;;;;;;19.52;87.10;99598.78;4990719;28;20177;-72
2021/07/06 05:17:29;;;;;;;0.70;0.50;;;;;;;19.59;87.29;99600.81;4990643;28;20188;-72
2021/07/06 05:19:55;;;;;;;0.70;0.70;;;;;;;19.64;86.54;99596.84;4990665;28;20175;-72
2021/07/06 05:22:22;;;;;;;3.27;0.67;;;;;;;19.70;87.12;99589.75;4990436;28;20637;-72
2021/07/06 05:24:47;;;;;;;0.57;0.57;;;;;;;19.73;85.75;99594.50;4990650;28;20209;-73
2021/07/06 05:27:13;;;;;;;0.80;0.80;;;;;;;19.71;85.55;99596.88;4991514;28;20291;-72
2021/07/06 05:29:38;;;;;;;0.43;0.43;;;;;;;19.75;86.32;99595.69;4993981;28;20166;-72
2021/07/06 05:32:04;;;;;;;1.00;1.00;;;;;;;19.79;85.60;99595.69;4998620;28;20188;-71
2021/07/06 05:34:30;;;;;;;0.43;0.43;;;;;;;19.90;86.68;99602.03;5012409;28;20180;-73
2021/07/06 05:36:55;;;;;;;0.80;0.80;;;;;;;19.95;85.99;99600.84;5014726;28;20295;-72
2021/07/06 05:39:21;;;;;;;0.60;0.60;;;;;;;20.02;86.90;99601.66;5014422;28;20204;-72
2021/07/06 05:41:47;;;;;;;0.77;0.50;;;;;;;20.11;86.90;99596.53;5014348;28;20467;-72
2021/07/06 05:44:13;;;;;;;0.50;0.50;;;;;;;20.13;84.65;99602.47;5014416;28;20169;-71
2021/07/06 05:46:39;;;;;;;0.63;0.50;;;;;;;20.21;86.03;99603.25;5014259;28;20180;-71
2021/07/06 05:49:05;;;;;;;2.40;0.70;;;;;;;20.27;84.58;99604.44;5014182;28;20173;-71
2021/07/06 05:51:30;;;;;;;1.60;0.50;;;;;;;20.33;83.58;99602.03;5005690;28;20192;-71
2021/07/06 05:53:55;;;;;;;0.60;0.60;;;;;;;20.37;83.52;99586.19;4994606;28;20169;-72
2021/07/06 05:56:21;;;;;;;0.40;0.40;;;;;;;20.26;82.42;99593.75;4994531;28;20653;-71
2021/07/06 05:58:47;;;;;;;0.40;0.40;;;;;;;20.30;82.96;99591.75;4994262;28;20216;-71
2021/07/06 06:01:13;;;;;;;0.57;0.57;;;;;;;20.38;82.83;99602.41;4994331;28;20623;-73
2021/07/06 06:03:38;;;;;;;0.50;0.50;;;;;;;20.33;82.36;99600.06;4994464;28;20209;-73
2021/07/06 06:06:04;;;;;;;0.63;0.63;;;;;;;20.36;83.43;99585.38;4994232;28;20185;-73
2021/07/06 06:08:29;;;;;;;0.87;0.80;;;;;;;20.41;83.69;99584.22;4994311;28;20232;-73
2021/07/06 06:10:55;;;;;;;0.67;0.63;;;;;;;20.45;81.62;99579.47;4993971;28;20185;-73
2021/07/06 06:13:20;;;;;;;0.60;0.60;;;;;;;20.48;81.65;99578.66;5003270;28;20188;-74
2021/07/06 06:15:46;;;;;;;0.60;0.60;;;;;;;20.64;81.75;99581.00;5012263;28;20180;-74
2021/07/06 06:18:11;;;;;;;0.60;0.60;;;;;;;20.74;82.05;99582.97;5013823;28;20275;-73
2021/07/06 06:20:36;;;;;;;0.97;0.60;;;;;;;20.83;81.02;99569.47;4996735;28;20181;-73
2021/07/06 06:23:04;;;;;;;1.07;0.37;;;;;;;20.83;79.34;99580.56;4993994;28;20235;-73
2021/07/06 06:25:29;;;;;;;0.70;0.70;;;;;;;20.86;79.82;99587.31;4993783;28;20189;-73
2021/07/06 06:27:55;;;;;;;1.30;0.40;;;;;;;20.81;79.28;99594.03;4994281;28;20263;-75
2021/07/06 06:30:20;;;;;;;0.97;0.67;;;;;;;20.89;80.54;99590.06;4993569;28;20188;-75
2021/07/06 06:32:46;;;;;;;0.60;0.60;;;;;;;20.96;80.91;99586.44;4993651;28;20188;-75
2021/07/06 06:35:12;;;;;;;1.33;0.77;;;;;;;21.00;79.39;99590.03;4993775;28;20177;-73
2021/07/06 06:37:37;;;;;;;0.60;0.60;;;;;;;21.07;79.55;99590.00;4994053;28;20201;-73
2021/07/06 06:40:04;;;;;;;0.40;0.40;;;;;;;21.08;78.45;99599.91;4993638;28;20209;-73
2021/07/06 06:42:29;;;;;;;0.80;0.57;;;;;;;21.13;78.23;99588.41;4993751;28;20177;-73
2021/07/06 06:44:55;;;;;;;0.30;0.30;;;;;;;21.09;75.97;99587.59;4993653;28;20694;-73
2021/07/06 06:47:20;;;;;;;0.60;0.60;;;;;;;21.04;77.79;99588.03;4993491;28;20205;-72
2021/07/06 06:49:45;;;;;;;0.60;0.60;;;;;;;21.05;77.44;99584.84;4992226;28;20204;-73
2021/07/06 06:52:11;;;;;;;0.50;0.50;;;;;;;21.09;77.77;99582.03;4991991;28;20181;-74
2021/07/06 06:54:38;;;;;;;0.80;0.50;;;;;;;21.18;78.47;99582.41;4993369;28;20224;-73
2021/07/06 06:57:04;;;;;;;0.80;0.80;;;;;;;21.39;77.88;99582.31;4992100;28;20204;-73
2021/07/06 06:59:29;;;;;;;0.67;0.67;;;;;;;21.55;76.82;99583.81;4993994;28;20189;-73
2021/07/06 07:04:39;;;;;;;0.40;0.40;;;;;;;21.96;76.89;99584.72;5012027;28;20247;-73
2021/07/06 07:07:04;;;;;;;0.50;0.50;;;;;;;22.04;74.09;99576.31;5008433;28;20213;-72
2021/07/06 07:09:29;;;;;;;1.70;0.50;;;;;;;22.12;76.26;99572.28;4993246;28;20184;-73
2021/07/06 07:11:55;;;;;;;0.60;0.60;;;;;;;22.19;74.97;99570.25;4992997;28;20181;-74
2021/07/06 07:14:20;;;;;;;0.60;0.60;;;;;;;22.27;74.39;99582.88;4993031;28;20240;-73
2021/07/06 07:16:47;;;;;;;0.20;0.20;;;;;;;22.22;73.49;99596.47;4992969;28;20400;-73
2021/07/06 07:19:12;;;;;;;0.40;0.40;;;;;;;22.16;73.14;99595.34;4992875;28;20260;-73
2021/07/06 07:21:37;;;;;;;2.10;0.80;;;;;;;22.08;72.55;99593.81;4992739;28;20268;-73
2021/07/06 07:24:03;;;;;;;0.30;0.30;;;;;;;22.15;73.34;99588.97;4992867;28;20649;-73
2021/07/06 07:26:28;;;;;;;0.53;0.53;;;;;;;22.11;73.32;99584.63;4992871;28;20209;-73
2021/07/06 07:28:54;;;;;;;0.90;0.60;;;;;;;22.10;75.15;99575.50;4992695;28;20216;-73
2021/07/06 07:31:19;;;;;;;1.90;0.73;;;;;;;22.08;74.25;99591.03;4991192;28;20639;-73
2021/07/06 07:33:44;;;;;;;0.50;0.50;;;;;;;22.09;73.05;99576.69;4992458;28;20181;-73
2021/07/06 07:36:10;;;;;;;0.63;0.63;;;;;;;22.06;73.90;99588.66;4992683;28;20179;-73
2021/07/06 07:38:35;;;;;;;0.67;0.67;;;;;;;22.00;74.17;99583.91;4992512;28;20212;-73
2021/07/06 07:41:00;;;;;;;1.70;0.50;;;;;;;22.05;73.97;99573.16;4992382;28;20181;-73
2021/07/06 07:43:26;;;;;;;0.50;0.50;;;;;;;22.19;74.00;99572.25;4992501;28;20173;-73
2021/07/06 07:45:51;;;;;;;0.57;0.57;;;;;;;22.35;72.34;99566.91;4992503;28;20181;-73
2021/07/06 07:48:16;;;;;;;0.80;0.80;;;;;;;22.48;73.88;99565.19;4992273;28;20201;-75
2021/07/06 07:50:42;;;;;;;0.60;0.60;;;;;;;22.72;72.73;99571.72;4992074;28;20177;-75
2021/07/06 07:53:07;;;;;;;0.57;0.50;;;;;;;22.84;71.50;99568.41;4992360;28;20185;-75
2021/07/06 07:55:32;;;;;;;2.70;0.70;;;;;;;23.07;72.23;99559.38;4994533;28;20181;-75
2021/07/06 07:57:58;;;;;;;0.70;0.70;;;;;;;23.16;71.49;99567.22;5011919;28;20236;-73
2021/07/06 08:00:23;;;;;;;0.50;0.50;;;;;;;23.17;69.87;99571.59;5011827;28;20184;-73
2021/07/06 08:02:48;;;;;;;0.30;0.30;;;;;;;23.20;70.04;99570.75;5011579;28;20172;-73
2021/07/06 08:05:15;;;;;;;0.50;0.50;;;;;;;23.09;70.52;99568.09;5011721;28;20546;-73
2021/07/06 08:07:41;;;;;;;0.40;0.40;;;;;;;22.99;68.46;99559.88;5003070;28;20224;-71
2021/07/06 08:10:07;;;;;;;0.33;0.33;;;;;;;22.91;68.97;99566.75;5001862;28;20216;-71
2021/07/06 08:12:33;;;;;;;0.37;0.37;;;;;;;22.96;70.20;99572.63;5001878;28;20232;-71
2021/07/06 08:14:58;;;;;;;0.53;0.53;;;;;;;22.94;69.33;99575.06;5000245;28;20171;-71
2021/07/06 08:17:23;;;;;;;0.60;0.60;;;;;;;22.93;69.49;99578.25;5002076;28;20176;-71
2021/07/06 08:19:50;;;;;;;0.50;0.50;;;;;;;22.82;69.05;99592.28;5009696;28;20189;-72
2021/07/06 08:22:15;;;;;;;0.47;0.47;;;;;;;22.74;70.29;99586.00;5011172;28;20170;-72
2021/07/06 08:24:41;;;;;;;0.20;0.20;;;;;;;22.78;70.45;99583.97;5011442;28;20181;-71
2021/07/06 08:27:06;;;;;;;1.27;0.70;;;;;;;22.79;69.76;99587.53;5011298;28;20290;-71
2021/07/06 08:29:31;;;;;;;0.53;0.53;;;;;;;22.77;69.15;99592.75;5011244;28;20169;-71
2021/07/06 08:31:58;;;;;;;0.40;0.40;;;;;;;22.83;69.80;99599.47;5011102;28;20273;-73
2021/07/06 08:34:23;;;;;;;0.80;0.80;;;;;;;22.84;70.83;99598.25;5011279;28;20585;-72
2021/07/06 08:36:48;;;;;;;0.70;0.70;;;;;;;22.88;71.00;99599.03;5008412;28;20280;-73
2021/07/06 08:39:14;;;;;;;0.50;0.30;;;;;;;22.83;70.50;99603.03;5005510;28;20543;-73
2021/07/06 08:41:40;;;;;;;0.50;0.50;;;;;;;22.65;70.16;99599.63;5007388;28;20189;-72
2021/07/06 08:44:05;;;;;;;0.83;0.80;;;;;;;22.54;70.69;99616.44;5004182;28;20212;-72
2021/07/06 08:46:35;;;;;;;1.23;0.70;;;;;;;22.49;68.91;99619.69;4996464;28;20242;-72
2021/07/06 08:49:02;;;;;;;1.40;0.30;;;;;;;22.54;71.69;99608.09;5010402;28;20208;-73
2021/07/06 08:51:30;;;;;;;0.40;0.40;;;;;;;22.50;70.19;99626.03;5010768;28;20636;-73
2021/07/06 08:53:55;;;;;;;0.70;0.70;;;;;;;22.56;70.69;99625.16;5006493;28;20175;-73
2021/07/06 08:56:21;;;;;;;1.80;0.43;;;;;;;22.68;70.88;99625.84;4997420;28;20188;-72
2021/07/06 08:58:46;;;;;;;0.60;0.60;;;;;;;22.80;70.58;99659.53;4991499;28;20676;-73
2021/07/06 09:01:13;;;;;;;1.17;0.50;;;;;;;23.00;71.64;99924.50;5001613;28;20645;-73
2021/07/06 09:03:55;;;;;;;0.50;0.50;;;;;;;23.12;62.94;99625.00;4996716;28;20272;-73
2021/07/06 09:06:34;;;;;;;0.70;0.60;;;;;;;23.19;71.71;99624.13;4994986;28;20173;-73
2021/07/06 09:09:19;;;;;;;0.60;0.60;;;;;;;23.25;71.78;99626.03;4995110;28;20420;-73
2021/07/06 09:11:50;;;;;;;0.50;0.50;;;;;;;23.23;70.42;99622.09;4994904;28;20641;-73
2021/07/06 09:14:17;;;;;;;1.30;1.00;;;;;;;23.18;70.42;99630.91;4994885;28;20187;-73
2021/07/06 09:16:42;;;;;;;0.77;0.73;;;;;;;23.20;71.66;99629.28;4994856;28;20204;-73
2021/07/06 09:19:25;;;;;;;0.60;0.60;;;;;;;23.23;70.05;99624.88;4994639;28;20205;-73
2021/07/06 09:22:13;;;;;;;0.90;0.90;;;;;;;23.17;70.92;99632.91;4994613;28;20169;-73
2021/07/06 09:24:39;;;;;;;1.07;1.07;;;;;;;23.17;70.74;99621.75;4994579;28;20180;-73
2021/07/06 09:27:23;;;;;;;1.40;1.30;;;;;;;23.29;69.59;99624.00;4994521;28;20259;-73
2021/07/06 09:30:05;;;;;;;0.70;0.70;;;;;;;23.36;70.84;99620.31;4994210;28;20173;-73
2021/07/06 09:32:32;;;;;;;0.63;0.63;;;;;;;23.25;68.99;99622.44;4994583;28;20212;-72
2021/07/06 09:35:07;;;;;;;0.43;0.43;;;;;;;23.10;69.33;99628.19;4994454;28;20165;-73
2021/07/06 09:37:46;;;;;;;0.70;0.70;;;;;;;23.01;70.87;99625.13;4994456;28;20228;-73
2021/07/06 09:40:34;;;;;;;0.67;0.67;;;;;;;23.01;71.74;99627.13;4994358;28;20255;-72
2021/07/06 09:43:13;;;;;;;0.57;0.50;;;;;;;23.06;71.10;99621.09;4994228;28;20177;-73
2021/07/06 09:45:39;;;;;;;0.40;0.40;;;;;;;23.07;69.59;99623.47;4994263;28;20208;-73
2021/07/06 09:48:08;;;;;;;0.60;0.50;;;;;;;23.07;71.19;99633.81;4994191;28;20201;-72
2021/07/06 09:50:34;;;;;;;0.70;0.70;;;;;;;23.05;71.98;99625.88;4994313;28;20696;-73
2021/07/06 09:53:00;;;;;;;0.90;0.80;;;;;;;22.99;70.55;99627.53;4994243;28;20288;-72
2021/07/06 09:55:30;;;;;;;0.40;0.40;;;;;;;22.95;71.92;99623.22;4994118;28;20251;-73
2021/07/06 09:57:56;;;;;;;0.90;0.90;;;;;;;22.86;72.11;99632.06;4994106;28;20656;-73
2021/07/06 10:00:21;;;;;;;0.57;0.57;;;;;;;22.80;71.19;99623.34;4994006;28;20187;-73
2021/07/06 10:02:47;;;;;;;0.40;0.40;;;;;;;22.71;72.70;99620.28;4993711;28;20189;-73
2021/07/06 10:05:18;;;;;;;0.60;0.60;;;;;;;22.62;74.07;99613.59;4993894;28;20220;-73
2021/07/06 10:07:43;;;;;;;0.80;0.60;;;;;;;22.62;74.79;99619.94;4995252;28;20200;-71
2021/07/06 10:10:15;;;;;;;0.90;0.90;;;;;;;22.44;75.69;99616.56;5007992;28;20239;-73
2021/07/06 10:12:45;;;;;;;0.47;0.47;;;;;;;22.23;76.40;99631.44;5004920;28;20169;-73
2021/07/06 10:15:12;;;;;;;0.70;0.70;;;;;;;22.04;76.38;99651.44;5013730;28;20164;-73
2021/07/06 10:17:39;;;;;;;0.67;0.47;;;;;;;21.95;77.03;99660.22;4994658;28;20188;-73
2021/07/06 10:20:07;;;;;;;0.60;0.60;;;;;;;21.85;78.81;99664.69;4992668;28;20232;-73
2021/07/06 10:22:33;;;;;;;0.80;0.80;;;;;;;21.72;78.43;99666.34;4993763;28;20674;-72
2021/07/06 10:25:03;;;;;;;0.57;0.57;;;;;;;21.63;80.54;99668.75;4993680;28;20184;-72
2021/07/06 10:27:32;;;;;;;0.60;0.60;;;;;;;21.50;81.45;99681.53;4993813;28;20208;-72
2021/07/06 10:30:07;;;;;;;0.60;0.60;;;;;;;21.35;82.94;99678.81;4993588;28;20177;-72
2021/07/06 10:32:40;;;;;;;0.67;0.67;;;;;;;21.20;82.58;99682.81;4993621;28;20751;-73
2021/07/06 10:35:08;;;;;;;0.80;0.80;;;;;;;21.04;84.83;99674.13;4993810;28;20173;-73
2021/07/06 10:37:34;;;;;;;1.50;0.80;;;;;;;20.88;87.35;99682.09;4993701;28;20173;-73
2021/07/06 10:40:42;;;;;;;0.97;0.73;;;;;;;20.57;88.79;99683.72;4993397;28;20185;-72
2021/07/06 10:43:07;;;;;;;0.57;0.57;;;;;;;20.29;89.86;99687.25;4933177;29;20669;-74
2021/07/06 10:45:34;;;;;;;1.27;1.20;;;;;;;20.17;91.55;99688.44;4984176;28;20272;-74
2021/07/06 10:48:00;;;;;;;0.70;0.60;;;;;;;20.04;93.15;99693.56;4993583;28;20205;-75
2021/07/06 10:50:44;;;;;;;0.70;0.67;;;;;;;19.97;93.08;99690.00;4992223;28;20180;-75
2021/07/06 10:53:21;;;;;;;0.70;0.70;;;;;;;19.85;95.10;99705.03;4993565;28;20256;-73
2021/07/06 10:56:08;;;;;;;0.83;0.70;;;;;;;19.71;96.21;99710.53;4993614;28;20205;-73
2021/07/06 10:58:46;;;;;;;0.70;0.70;;;;;;;19.52;96.94;99723.47;4993449;28;20627;-75
2021/07/06 11:01:37;;;;;;;0.90;0.90;;;;;;;19.44;97.55;99716.31;4993246;28;20632;-75
2021/07/06 11:04:08;;;;;;;0.97;0.90;;;;;;;19.39;98.51;99727.00;4998516;28;20184;-75
2021/07/06 11:06:45;;;;;;;0.73;0.73;;;;;;;19.24;99.43;99729.69;5000508;28;20161;-74
2021/07/06 11:09:11;;;;;;;1.20;0.97;;;;;;;19.16;100.00;99705.88;4993181;28;20262;-74
2021/07/06 11:11:37;;;;;;;0.90;0.90;;;;;;;19.14;100.00;99663.16;4993070;28;20173;-74
2021/07/06 11:14:22;;;;;;;1.43;1.17;;;;;;;19.19;100.00;99660.00;4993395;28;20178;-72
2021/07/06 11:16:56;;;;;;;2.03;0.90;;;;;;;19.22;100.00;99637.06;4993177;28;20232;-72
2021/07/06 11:19:33;;;;;;;1.13;1.03;;;;;;;19.28;100.00;99654.91;4993398;28;20185;-72
2021/07/06 11:22:16;;;;;;;1.33;1.23;;;;;;;19.35;100.00;99632.78;4992894;28;20173;-72
2021/07/06 11:24:43;;;;;;;1.00;1.00;;;;;;;19.32;100.00;99675.09;4992034;28;20186;-71
2021/07/06 11:27:11;;;;;;;1.67;1.20;;;;;;;19.24;100.00;99673.47;5012038;28;20176;-71
2021/07/06 11:29:38;;;;;;;1.60;1.50;;;;;;;19.17;100.00;99607.00;5012270;28;20168;-71
2021/07/06 11:32:15;;;;;;;1.50;1.40;;;;;;;19.02;100.00;99631.84;5012284;28;20173;-71
2021/07/06 11:34:43;;;;;;;1.27;1.23;;;;;;;19.17;100.00;99643.00;5011067;28;20279;-72
2021/07/06 11:37:11;;;;;;;2.43;1.47;;;;;;;19.23;100.00;99641.41;5012127;28;20243;-72